Time;durP1;ratioP1;P1;durP2;ratioP2;P2;SDS_P1;SDS_P2;PMS_P1;PMS_P2;Temp;Humidity;BMP_temperature;BMP_pressure;BME280_temperature;BME280_humidity;BME280_pressure;Samples;Min_cycle;Max_cycle;Signal;HPM_P1;HPM_P2
2024/02/02 00:02:10;;;;;;;15.80;4.33;;;;;;;4.54;99.95;102131.72;4995198;28;20203;-79
2024/02/02 00:04:38;;;;;;;14.47;4.67;;;;;;;4.51;99.60;102132.63;4991149;28;20207;-79
2024/02/02 00:07:05;;;;;;;17.60;4.10;;;;;;;4.51;99.64;102129.13;4985012;28;20208;-79
2024/02/02 00:09:33;;;;;;;15.07;4.37;;;;;;;4.49;99.69;102120.34;4991661;28;20210;-79
2024/02/02 00:11:59;;;;;;;20.10;4.23;;;;;;;4.50;99.48;102136.16;4987015;28;20243;-80
2024/02/02 00:14:26;;;;;;;14.10;3.97;;;;;;;4.49;99.22;102123.00;4997153;28;20218;-79
2024/02/02 00:16:53;;;;;;;14.23;4.07;;;;;;;4.48;99.25;102121.25;4993401;28;20227;-79
2024/02/02 00:19:19;;;;;;;19.13;3.80;;;;;;;4.49;99.32;102123.00;4994077;28;20234;-78
2024/02/02 00:21:46;;;;;;;11.40;4.00;;;;;;;4.50;98.80;102122.09;4990642;28;20295;-79
2024/02/02 00:24:13;;;;;;;23.13;3.77;;;;;;;4.47;98.60;102119.53;4995835;28;20302;-78
2024/02/02 00:26:40;;;;;;;20.43;4.40;;;;;;;4.47;98.63;102116.91;4993888;28;20227;-79
2024/02/02 00:29:07;;;;;;;16.23;4.10;;;;;;;4.46;98.72;102125.72;4996168;28;20212;-79
2024/02/02 00:31:34;;;;;;;15.57;4.03;;;;;;;4.47;98.46;102124.81;4989797;28;20743;-79
2024/02/02 00:34:00;;;;;;;17.70;4.63;;;;;;;4.44;98.61;102124.84;4994889;28;20280;-79
2024/02/02 00:36:27;;;;;;;15.73;4.70;;;;;;;4.44;98.47;102119.56;4992598;28;20235;-79
2024/02/02 00:38:53;;;;;;;15.83;4.23;;;;;;;4.44;98.54;102127.50;4989578;28;20207;-78
2024/02/02 00:41:20;;;;;;;14.80;4.83;;;;;;;4.45;98.23;102123.97;4989172;28;20216;-79
2024/02/02 00:43:48;;;;;;;14.93;5.03;;;;;;;4.43;98.48;102128.38;4996648;28;20299;-79
2024/02/02 00:46:14;;;;;;;16.13;4.00;;;;;;;4.44;98.44;102124.84;4996097;28;20668;-79
2024/02/02 00:48:41;;;;;;;16.60;4.90;;;;;;;4.47;98.39;102122.19;4997809;28;20213;-79
2024/02/02 00:51:07;;;;;;;18.03;6.30;;;;;;;4.47;98.24;102123.06;4993507;28;20215;-78
2024/02/02 00:53:34;;;;;;;17.30;5.60;;;;;;;4.50;98.18;102127.38;4989026;28;20211;-79
2024/02/02 00:56:01;;;;;;;14.87;5.53;;;;;;;4.49;98.02;102117.72;5003214;28;20232;-79
2024/02/02 00:58:28;;;;;;;22.67;6.33;;;;;;;4.48;98.07;102126.53;4994009;28;20302;-79
2024/02/02 01:00:55;;;;;;;22.30;6.23;;;;;;;4.48;98.26;102121.25;4992534;28;20724;-79
2024/02/02 01:03:22;;;;;;;19.40;5.93;;;;;;;4.51;98.07;102126.50;4991781;28;22294;-79
2024/02/02 01:05:49;;;;;;;13.67;5.67;;;;;;;4.50;98.21;102117.69;4994816;28;21015;-78
2024/02/02 01:08:15;;;;;;;13.73;5.80;;;;;;;4.51;97.96;102115.94;5000906;28;20302;-79
2024/02/02 01:10:42;;;;;;;29.67;6.70;;;;;;;4.49;97.98;102113.31;5000049;28;20590;-78
2024/02/02 01:13:09;;;;;;;14.03;6.70;;;;;;;4.50;98.09;102116.81;4994235;28;20215;-79
2024/02/02 01:15:35;;;;;;;20.73;5.77;;;;;;;4.54;98.04;102119.41;5003462;28;20222;-79
2024/02/02 01:18:07;;;;;;;20.33;7.77;;;;;;;4.55;97.77;102122.91;4998587;28;20655;-79
2024/02/02 01:20:34;;;;;;;21.90;6.83;;;;;;;4.53;98.61;102128.22;4997950;28;20304;-78
2024/02/02 01:23:01;;;;;;;17.50;7.13;;;;;;;4.53;98.59;102132.63;5002933;28;20209;-79
2024/02/02 01:25:29;;;;;;;16.67;7.60;;;;;;;4.55;98.88;102120.28;4990985;28;20250;-79
2024/02/02 01:27:55;;;;;;;18.57;8.00;;;;;;;4.55;98.78;102117.63;4995146;28;20203;-79
2024/02/02 01:30:23;;;;;;;26.23;8.70;;;;;;;4.50;99.09;102122.97;4994697;28;20310;-79
2024/02/02 01:32:49;;;;;;;23.47;8.50;;;;;;;4.53;99.60;102122.06;4998122;28;20200;-79
2024/02/02 01:35:17;;;;;;;26.23;8.50;;;;;;;4.51;99.88;102119.44;4994652;28;20227;-79
2024/02/02 01:37:44;;;;;;;23.13;8.50;;;;;;;4.51;99.62;102118.56;4999297;28;20712;-79
2024/02/02 01:40:13;;;;;;;20.77;8.43;;;;;;;4.50;99.87;102119.47;4997763;28;20220;-79
2024/02/02 01:42:40;;;;;;;23.23;8.00;;;;;;;4.51;99.84;102118.56;4989526;28;20211;-78
2024/02/02 01:45:07;;;;;;;17.50;7.80;;;;;;;4.51;99.79;102119.44;4991812;28;20227;-79
2024/02/02 01:47:34;;;;;;;21.80;9.17;;;;;;;4.50;100.00;102122.09;5003116;28;20579;-78
2024/02/02 01:50:02;;;;;;;23.30;9.07;;;;;;;4.50;100.00;102122.97;4990730;28;20271;-78
2024/02/02 01:52:30;;;;;;;19.63;8.57;;;;;;;4.47;100.00;102117.78;4997360;28;20215;-79
2024/02/02 01:54:58;;;;;;;16.73;8.13;;;;;;;4.51;100.00;102121.22;4994972;28;20257;-78
2024/02/02 01:57:24;;;;;;;19.77;7.80;;;;;;;4.50;100.00;102116.81;5003697;28;20232;-78
2024/02/02 01:59:51;;;;;;;20.97;7.53;;;;;;;4.51;100.00;102121.22;4997748;28;20328;-79
2024/02/02 02:02:18;;;;;;;17.90;6.80;;;;;;;4.53;100.00;102124.69;4991091;28;20214;-79
2024/02/02 02:04:46;;;;;;;18.27;6.70;;;;;;;4.52;100.00;102120.31;4996601;28;20222;-79
2024/02/02 02:07:12;;;;;;;21.37;7.47;;;;;;;4.52;100.00;102113.28;4990551;28;20291;-79
2024/02/02 02:09:41;;;;;;;17.30;6.80;;;;;;;4.54;100.00;102116.78;4998335;28;20300;-79
2024/02/02 02:12:07;;;;;;;20.80;7.60;;;;;;;4.53;100.00;102112.38;4993616;28;20861;-79
2024/02/02 02:14:34;;;;;;;16.47;7.43;;;;;;;4.50;100.00;102112.41;4995071;28;20234;-79
2024/02/02 02:17:01;;;;;;;19.33;6.43;;;;;;;4.52;100.00;102107.13;5000734;28;20219;-79
2024/02/02 02:19:27;;;;;;;17.13;5.97;;;;;;;4.53;100.00;102103.59;5000653;28;20307;-79
2024/02/02 02:21:55;;;;;;;22.00;6.80;;;;;;;4.54;100.00;102105.34;5002380;28;20759;-78
2024/02/02 02:24:22;;;;;;;24.03;8.10;;;;;;;4.53;100.00;102100.97;4993864;28;20683;-79
2024/02/02 02:26:48;;;;;;;21.13;7.00;;;;;;;4.51;100.00;102097.47;4997177;28;20223;-78
2024/02/02 02:29:15;;;;;;;14.17;5.97;;;;;;;4.50;100.00;102096.59;4998287;28;20838;-79
2024/02/02 02:31:41;;;;;;;15.83;5.70;;;;;;;4.53;100.00;102090.41;4992462;28;20214;-79
2024/02/02 02:34:08;;;;;;;12.33;5.90;;;;;;;4.52;100.00;102093.94;4998782;28;20737;-79
2024/02/02 02:36:34;;;;;;;21.43;6.40;;;;;;;4.50;100.00;102093.09;4989472;28;20237;-78
2024/02/02 02:39:05;;;;;;;23.17;6.63;;;;;;;4.48;100.00;102093.09;4995441;28;20207;-78
2024/02/02 02:41:32;;;;;;;19.67;5.87;;;;;;;4.51;100.00;102081.63;4985263;28;20250;-80
2024/02/02 02:43:58;;;;;;;15.83;5.87;;;;;;;4.50;100.00;102074.63;4993099;28;20212;-79
2024/02/02 02:46:25;;;;;;;10.17;6.07;;;;;;;4.53;100.00;102064.03;4990516;28;20247;-79
2024/02/02 02:48:51;;;;;;;23.03;7.93;;;;;;;4.53;100.00;102059.63;4992863;28;20214;-78
2024/02/02 02:51:18;;;;;;;18.77;7.13;;;;;;;4.52;100.00;102059.63;4990651;28;20211;-79
2024/02/02 02:53:45;;;;;;;18.83;7.33;;;;;;;4.53;100.00;102059.63;4985836;28;20239;-79
2024/02/02 02:56:12;;;;;;;16.67;6.70;;;;;;;4.52;100.00;102055.22;4998316;28;20317;-78
2024/02/02 02:58:38;;;;;;;17.57;7.37;;;;;;;4.51;100.00;102053.50;4991448;28;20212;-79
2024/02/02 03:01:05;;;;;;;18.80;7.70;;;;;;;4.49;100.00;102049.13;4991843;28;20664;-78
2024/02/02 03:03:31;;;;;;;16.27;7.70;;;;;;;4.50;100.00;102038.56;4989785;28;20592;-79
2024/02/02 03:05:58;;;;;;;20.77;7.67;;;;;;;4.55;100.00;102035.84;4994580;28;20224;-79
2024/02/02 03:08:25;;;;;;;20.47;8.43;;;;;;;4.56;100.00;102029.69;4991341;28;20851;-79
2024/02/02 03:10:51;;;;;;;26.53;8.77;;;;;;;4.56;100.00;102032.31;4996931;28;20297;-79
2024/02/02 03:13:19;;;;;;;21.17;8.97;;;;;;;4.58;100.00;102027.88;5000647;28;20207;-79
2024/02/02 03:15:46;;;;;;;22.93;9.70;;;;;;;4.61;99.79;102035.75;4998381;28;20227;-78
2024/02/02 03:18:14;;;;;;;24.70;9.53;;;;;;;4.60;99.95;102041.94;4999040;28;20254;-79
2024/02/02 03:20:40;;;;;;;22.47;9.80;;;;;;;4.59;100.00;102050.75;4993359;28;20233;-79
2024/02/02 03:23:07;;;;;;;21.10;11.77;;;;;;;4.60;100.00;102039.28;5000682;28;20306;-79
2024/02/02 03:25:34;;;;;;;23.23;10.40;;;;;;;4.62;100.00;102040.13;4991437;28;21066;-78
2024/02/02 03:28:00;;;;;;;20.60;10.93;;;;;;;4.63;100.00;102033.09;4993389;28;20204;-78
2024/02/02 03:30:29;;;;;;;25.43;10.83;;;;;;;4.63;100.00;102030.47;4992979;28;20208;-79
2024/02/02 03:32:56;;;;;;;22.63;10.97;;;;;;;4.60;99.87;102039.28;4992071;28;20207;-78
2024/02/02 03:35:22;;;;;;;23.83;12.03;;;;;;;4.65;100.00;102033.94;4993574;28;20241;-79
2024/02/02 03:37:49;;;;;;;24.23;11.63;;;;;;;4.66;99.97;102041.81;4996370;28;20318;-79
2024/02/02 03:40:15;;;;;;;26.97;10.77;;;;;;;4.66;100.00;102031.25;4999129;28;20215;-79
2024/02/02 03:42:42;;;;;;;25.67;11.00;;;;;;;4.68;99.86;102039.16;4993227;28;20286;-80
2024/02/02 03:45:09;;;;;;;23.70;11.17;;;;;;;4.70;99.60;102046.16;4996461;28;20712;-79
2024/02/02 03:47:37;;;;;;;22.23;11.60;;;;;;;4.68;99.55;102045.28;4987800;28;20290;-79
2024/02/02 03:50:04;;;;;;;18.67;11.30;;;;;;;4.68;99.32;102049.69;4996537;28;20203;-79
2024/02/02 03:52:31;;;;;;;25.00;10.73;;;;;;;4.69;99.46;102041.75;4994968;28;20209;-79
2024/02/02 03:54:57;;;;;;;20.27;11.57;;;;;;;4.67;99.17;102043.56;4991802;28;20224;-79
2024/02/02 03:57:24;;;;;;;20.23;11.63;;;;;;;4.70;98.99;102040.88;4991429;28;20227;-80
2024/02/02 03:59:50;;;;;;;21.97;10.13;;;;;;;4.73;98.70;102034.66;4999920;28;20571;-79
2024/02/02 04:02:17;;;;;;;29.03;11.40;;;;;;;4.75;98.56;102031.13;4999843;28;20921;-79
2024/02/02 04:04:45;;;;;;;26.63;11.93;;;;;;;4.73;98.56;102038.19;4991498;28;20206;-79
2024/02/02 04:07:12;;;;;;;19.83;11.87;;;;;;;4.74;98.63;102021.44;4988789;28;20196;-79
2024/02/02 04:09:41;;;;;;;22.07;11.33;;;;;;;4.71;98.65;102026.78;4998669;28;20213;-79
2024/02/02 04:12:07;;;;;;;29.10;11.77;;;;;;;4.72;98.08;102030.28;4996519;28;20212;-79
2024/02/02 04:14:34;;;;;;;25.80;11.33;;;;;;;4.72;98.13;102020.59;5002492;28;20209;-78
2024/02/02 04:17:01;;;;;;;20.80;11.47;;;;;;;4.74;97.67;102018.81;5000866;28;20224;-79
2024/02/02 04:19:27;;;;;;;24.73;12.77;;;;;;;4.76;97.64;101998.53;4994761;28;20569;-79
2024/02/02 04:21:55;;;;;;;20.87;12.03;;;;;;;4.78;97.49;102003.78;5000680;28;20203;-79
2024/02/02 04:24:22;;;;;;;28.33;13.93;;;;;;;4.75;97.22;102007.34;4999628;28;20227;-79
2024/02/02 04:26:48;;;;;;;23.60;12.53;;;;;;;4.76;96.57;101993.25;4997382;28;20233;-79
2024/02/02 04:29:15;;;;;;;25.60;12.97;;;;;;;4.78;96.06;101991.47;5007053;28;20217;-79
2024/02/02 04:31:41;;;;;;;26.13;12.80;;;;;;;4.80;95.69;101984.41;5000006;28;20207;-80
2024/02/02 04:34:08;;;;;;;25.60;14.40;;;;;;;4.81;95.22;101986.16;5002237;28;20661;-79
2024/02/02 04:36:34;;;;;;;23.27;12.40;;;;;;;4.78;95.61;101983.56;5000194;28;20234;-79
2024/02/02 04:39:02;;;;;;;33.60;14.50;;;;;;;4.81;95.34;101990.56;5002009;28;20203;-79
2024/02/02 04:41:29;;;;;;;28.33;13.43;;;;;;;4.81;95.14;101998.47;5000368;28;20234;-79
2024/02/02 04:43:55;;;;;;;24.77;13.87;;;;;;;4.82;95.37;101995.81;5001664;28;20208;-79
2024/02/02 04:46:22;;;;;;;27.30;16.10;;;;;;;4.82;94.89;101995.81;5003257;28;20231;-79
2024/02/02 04:48:48;;;;;;;29.40;16.47;;;;;;;4.86;94.50;101988.69;5003801;28;20298;-80
2024/02/02 04:51:15;;;;;;;31.20;17.03;;;;;;;4.85;94.11;101969.31;4997544;28;20610;-79
2024/02/02 04:53:41;;;;;;;29.37;15.63;;;;;;;4.88;94.00;101968.41;4994486;28;20204;-79
2024/02/02 04:56:10;;;;;;;31.23;17.43;;;;;;;4.85;93.71;101956.13;4993162;28;20262;-79
2024/02/02 04:58:36;;;;;;;24.53;15.17;;;;;;;4.85;93.44;101958.75;4996771;28;20231;-79
2024/02/02 05:01:03;;;;;;;29.73;16.20;;;;;;;4.83;93.09;101955.31;4997519;28;20204;-79
2024/02/02 05:03:31;;;;;;;33.73;14.83;;;;;;;4.84;92.45;101957.03;4998096;28;20700;-79
2024/02/02 05:05:58;;;;;;;25.63;14.07;;;;;;;4.83;92.29;101947.41;4992537;28;20355;-79
2024/02/02 05:08:24;;;;;;;26.93;13.70;;;;;;;4.83;92.11;101946.53;4995432;28;20211;-79
2024/02/02 05:10:51;;;;;;;29.77;14.63;;;;;;;4.82;92.22;101934.22;4997206;28;20643;-79
2024/02/02 05:13:19;;;;;;;25.73;13.00;;;;;;;4.82;92.50;101932.47;4996383;28;20584;-79
2024/02/02 05:15:45;;;;;;;29.23;13.97;;;;;;;4.83;92.29;101941.25;4997085;28;20219;-79
2024/02/02 05:18:12;;;;;;;27.67;13.93;;;;;;;4.82;91.95;101943.00;4995283;28;21017;-79
2024/02/02 05:20:39;;;;;;;20.90;13.43;;;;;;;4.84;92.06;101942.97;4991641;28;20199;-79
2024/02/02 05:23:05;;;;;;;23.27;13.43;;;;;;;4.82;91.67;101924.53;4994264;28;20199;-79
2024/02/02 05:25:32;;;;;;;25.17;12.63;;;;;;;4.83;91.83;101928.91;4996238;28;20220;-80
2024/02/02 05:27:59;;;;;;;20.03;11.60;;;;;;;4.87;90.45;101930.56;4997772;28;20200;-79
2024/02/02 05:30:26;;;;;;;19.97;9.90;;;;;;;4.87;90.28;101935.84;4993399;28;20662;-79
2024/02/02 05:32:53;;;;;;;20.20;10.87;;;;;;;4.88;89.73;101927.03;4997460;28;20295;-79
2024/02/02 05:35:19;;;;;;;27.47;11.40;;;;;;;4.87;89.35;101917.38;4994666;28;20231;-79
2024/02/02 05:37:46;;;;;;;19.07;9.57;;;;;;;4.87;89.47;101925.28;4997770;28;20816;-79
2024/02/02 05:40:13;;;;;;;21.20;9.37;;;;;;;4.94;89.35;101930.47;4991773;28;20216;-79
2024/02/02 05:42:40;;;;;;;19.83;10.47;;;;;;;4.91;89.25;101933.16;4994311;28;20205;-79
2024/02/02 05:45:07;;;;;;;23.00;10.00;;;;;;;4.92;89.14;101933.13;4995655;28;20255;-79
2024/02/02 05:47:34;;;;;;;20.53;9.73;;;;;;;4.94;89.38;101941.03;4996985;28;20218;-80
2024/02/02 05:50:01;;;;;;;19.47;9.10;;;;;;;4.93;89.44;101941.94;4992239;28;20207;-78
2024/02/02 05:52:28;;;;;;;22.23;9.93;;;;;;;4.92;89.57;101925.22;4999402;28;20208;-79
2024/02/02 05:54:54;;;;;;;14.73;9.07;;;;;;;4.94;88.67;101926.06;4996619;28;20207;-79
2024/02/02 05:57:21;;;;;;;23.97;9.73;;;;;;;4.95;89.25;101934.84;4998700;28;21246;-79
2024/02/02 05:59:49;;;;;;;21.33;9.80;;;;;;;4.93;89.32;101936.66;4998054;28;20295;-79
2024/02/02 06:02:15;;;;;;;16.30;9.50;;;;;;;4.94;89.25;101930.47;4995942;28;20743;-78
2024/02/02 06:04:43;;;;;;;22.03;9.90;;;;;;;4.95;89.15;101929.56;4995563;28;20203;-78
2024/02/02 06:07:10;;;;;;;14.40;8.40;;;;;;;4.97;88.89;101922.50;4992040;28;20577;-79
2024/02/02 06:09:36;;;;;;;20.77;8.50;;;;;;;5.01;88.81;101932.09;4992288;28;20225;-79
2024/02/02 06:12:03;;;;;;;17.43;8.13;;;;;;;5.01;88.47;101908.34;4993444;28;20298;-80
2024/02/02 06:14:30;;;;;;;20.50;8.53;;;;;;;5.02;88.79;101915.31;4993720;28;20242;-79
2024/02/02 06:16:57;;;;;;;18.17;8.37;;;;;;;5.05;87.98;101923.19;4993185;28;20239;-80
2024/02/02 06:19:25;;;;;;;16.23;7.23;;;;;;;5.07;88.32;101914.34;4985615;28;20203;-79
2024/02/02 06:21:53;;;;;;;16.43;7.60;;;;;;;5.10;88.16;101905.50;4995878;28;20211;-80
2024/02/02 06:24:30;;;;;;;19.83;8.80;;;;;;;5.13;88.43;101898.38;4997020;28;20263;-80
2024/02/02 06:26:56;;;;;;;15.70;8.97;;;;;;;5.12;88.51;101880.78;4997333;28;20942;-79
2024/02/02 06:29:23;;;;;;;15.90;7.37;;;;;;;5.11;88.81;101865.84;4995668;28;20220;-80
2024/02/02 06:31:49;;;;;;;16.43;7.73;;;;;;;5.10;88.89;101866.75;4993436;28;20293;-79
2024/02/02 06:34:16;;;;;;;20.00;7.93;;;;;;;5.11;89.60;101851.78;5000484;28;20234;-79
2024/02/02 06:36:42;;;;;;;24.67;8.40;;;;;;;5.10;90.08;101848.28;5000041;28;20656;-79
2024/02/02 06:39:10;;;;;;;19.73;7.70;;;;;;;5.09;90.71;101859.72;4994779;28;20241;-79
2024/02/02 06:41:37;;;;;;;17.43;7.13;;;;;;;5.09;90.73;101867.66;4996342;28;20225;-79
2024/02/02 06:44:05;;;;;;;18.63;7.77;;;;;;;5.08;91.46;101865.91;5001144;28;20204;-80
2024/02/02 06:46:31;;;;;;;21.90;7.80;;;;;;;5.09;91.83;101858.88;4999328;28;20231;-80
2024/02/02 06:48:58;;;;;;;19.53;8.37;;;;;;;5.08;92.04;101847.44;4997200;28;20576;-79
2024/02/02 06:51:24;;;;;;;19.67;7.93;;;;;;;5.13;91.90;101850.84;4998701;28;20435;-79
2024/02/02 06:53:51;;;;;;;14.07;6.83;;;;;;;5.16;91.46;101852.56;4993776;28;20207;-79
2024/02/02 06:56:39;;;;;;;18.13;8.03;;;;;;;5.14;92.06;101851.72;4998429;28;20232;-80
2024/02/02 06:59:06;;;;;;;19.50;7.43;;;;;;;5.13;91.64;101852.63;4993814;28;20223;-79
2024/02/02 07:01:33;;;;;;;15.33;7.77;;;;;;;5.16;91.66;101849.91;4998262;28;20291;-78
2024/02/02 07:04:02;;;;;;;19.80;9.53;;;;;;;5.12;91.37;101848.25;4995203;28;20204;-79
2024/02/02 07:06:31;;;;;;;20.53;8.07;;;;;;;5.10;91.68;101835.06;4996800;28;20238;-78
2024/02/02 07:09:01;;;;;;;18.70;7.97;;;;;;;5.15;91.58;101837.63;4996274;28;20199;-79
2024/02/02 07:11:54;;;;;;;18.83;7.07;;;;;;;5.22;90.58;101834.78;4997639;28;20577;-79
2024/02/02 07:14:47;;;;;;;16.17;8.07;;;;;;;5.25;90.82;101818.00;4990231;28;20200;-79
2024/02/02 07:17:22;;;;;;;18.70;7.30;;;;;;;5.22;90.21;101818.94;4996980;28;20211;-79
2024/02/02 07:19:49;;;;;;;21.10;7.97;;;;;;;5.27;90.34;101816.19;4996110;28;20617;-79
2024/02/02 07:22:33;;;;;;;18.50;7.57;;;;;;;5.28;90.26;101790.66;4999063;28;20238;-79
2024/02/02 07:25:00;;;;;;;17.37;7.00;;;;;;;5.27;90.25;101797.72;4996212;28;20223;-79
2024/02/02 07:27:48;;;;;;;14.53;7.07;;;;;;;5.31;89.95;101777.38;4998425;28;20203;-79
2024/02/02 07:30:47;;;;;;;13.70;6.43;;;;;;;5.27;89.66;101773.06;4994177;28;20679;-79
2024/02/02 07:33:24;;;;;;;10.93;4.60;;;;;;;5.31;88.95;101780.03;4995991;28;20204;-78
2024/02/02 07:35:51;;;;;;;14.20;5.23;;;;;;;5.33;89.22;101794.94;4993946;28;20883;-79
2024/02/02 07:38:46;;;;;;;12.53;6.03;;;;;;;5.31;88.78;101783.53;4994543;28;20259;-79
2024/02/02 07:41:15;;;;;;;10.87;5.23;;;;;;;5.32;88.45;101785.28;4994551;28;20219;-80
2024/02/02 07:43:43;;;;;;;17.90;5.73;;;;;;;5.32;87.80;101776.47;4990492;28;20211;-79
2024/02/02 07:46:10;;;;;;;15.30;5.60;;;;;;;5.34;87.73;101770.25;4992159;28;20246;-78
2024/02/02 07:48:37;;;;;;;14.97;4.93;;;;;;;5.35;87.46;101777.28;4998703;28;20298;-79
2024/02/02 07:51:05;;;;;;;12.23;4.53;;;;;;;5.36;87.40;101772.88;4995089;28;20227;-79
2024/02/02 07:53:31;;;;;;;10.97;4.30;;;;;;;5.37;87.68;101764.03;4998613;28;20212;-78
2024/02/02 07:55:58;;;;;;;14.40;4.23;;;;;;;5.39;87.08;101763.06;5000562;28;20230;-79
2024/02/02 07:58:24;;;;;;;11.93;5.30;;;;;;;5.41;86.61;101766.53;4999446;28;20250;-79
2024/02/02 08:00:53;;;;;;;11.57;4.30;;;;;;;5.44;86.83;101761.19;4997894;28;20203;-80
2024/02/02 08:03:19;;;;;;;12.10;4.13;;;;;;;5.45;86.32;101762.94;5001506;28;20290;-80
2024/02/02 08:05:46;;;;;;;17.03;4.70;;;;;;;5.46;85.89;101763.81;4998058;28;20608;-79
2024/02/02 08:08:13;;;;;;;13.33;4.00;;;;;;;5.48;86.01;101770.78;4997803;28;20211;-79
2024/02/02 08:10:41;;;;;;;13.90;4.10;;;;;;;5.51;85.57;101768.06;4995973;28;20249;-79
2024/02/02 08:13:08;;;;;;;9.50;4.07;;;;;;;5.53;85.79;101765.41;4996995;28;20307;-79
2024/02/02 08:15:35;;;;;;;12.13;4.23;;;;;;;5.56;86.14;101758.22;4998895;28;20317;-79
2024/02/02 08:18:03;;;;;;;13.20;4.20;;;;;;;5.57;85.92;101754.69;4998601;28;20231;-79
2024/02/02 08:20:30;;;;;;;11.10;3.43;;;;;;;5.61;85.92;101759.91;4999059;28;20269;-79
2024/02/02 08:22:56;;;;;;;16.27;4.23;;;;;;;5.61;85.46;101766.06;4997565;28;20206;-79
2024/02/02 08:25:23;;;;;;;9.73;3.23;;;;;;;5.66;85.55;101771.25;4999281;28;20311;-80
2024/02/02 08:27:50;;;;;;;12.80;3.47;;;;;;;5.70;85.17;101759.69;4998863;28;20291;-79
2024/02/02 08:30:18;;;;;;;13.57;3.43;;;;;;;5.71;84.53;101759.66;4995813;28;20203;-79
2024/02/02 08:32:51;;;;;;;16.43;3.97;;;;;;;5.72;84.19;101761.38;4998762;28;20215;-79
2024/02/02 08:35:20;;;;;;;13.17;4.53;;;;;;;5.71;84.66;101759.66;4992655;28;20224;-79
2024/02/02 08:37:47;;;;;;;14.93;3.50;;;;;;;5.73;85.04;101762.25;5000941;28;20270;-79
2024/02/02 08:40:22;;;;;;;16.63;4.57;;;;;;;5.73;84.96;101767.53;4996987;28;20303;-79
2024/02/02 08:42:49;;;;;;;10.53;3.00;;;;;;;5.77;84.67;101764.75;4998941;28;21392;-78
2024/02/02 08:45:56;;;;;;;10.03;4.10;;;;;;;5.74;84.19;101748.97;4996285;28;20228;-79
2024/02/02 08:48:33;;;;;;;11.47;3.40;;;;;;;5.77;84.44;101737.47;4999190;28;20210;-79
2024/02/02 08:51:01;;;;;;;14.70;3.67;;;;;;;5.77;84.00;101734.81;4995895;28;20250;-79
2024/02/02 08:53:28;;;;;;;11.83;3.23;;;;;;;5.80;84.20;101745.31;5003485;28;20206;-79
2024/02/02 08:55:58;;;;;;;10.27;3.37;;;;;;;5.83;84.51;101735.53;4995801;28;20754;-79
2024/02/02 08:58:27;;;;;;;16.10;4.20;;;;;;;5.88;84.20;101736.31;5002357;28;20598;-79
2024/02/02 09:00:54;;;;;;;10.60;3.43;;;;;;;5.92;84.56;101737.06;5000137;28;20683;-79
2024/02/02 09:03:26;;;;;;;9.23;3.20;;;;;;;5.97;82.95;101726.38;4995980;28;20283;-79
2024/02/02 09:05:54;;;;;;;12.90;3.50;;;;;;;6.01;83.20;101720.13;4996233;28;20309;-79
2024/02/02 09:08:42;;;;;;;12.70;3.60;;;;;;;6.03;83.29;101716.53;5000253;28;20214;-79
2024/02/02 09:11:20;;;;;;;12.77;3.37;;;;;;;6.06;82.91;101723.50;4992820;28;20224;-78
2024/02/02 09:13:48;;;;;;;12.17;3.50;;;;;;;6.10;82.69;101712.78;4999534;28;20204;-79
2024/02/02 09:16:16;;;;;;;11.57;3.43;;;;;;;6.15;81.94;101702.94;4995910;28;20240;-79
2024/02/02 09:18:44;;;;;;;9.60;4.40;;;;;;;6.18;81.55;101717.88;4997868;28;20767;-78
2024/02/02 09:21:14;;;;;;;10.87;4.00;;;;;;;6.24;81.74;101707.13;4998729;28;20207;-79
2024/02/02 09:23:49;;;;;;;12.17;3.93;;;;;;;6.31;81.13;101718.38;4996126;28;20202;-79
2024/02/02 09:26:17;;;;;;;11.03;3.93;;;;;;;6.36;80.80;101705.88;4993150;28;20744;-79
2024/02/02 09:28:45;;;;;;;12.70;4.30;;;;;;;6.42;80.62;101713.66;4990381;28;20291;-79
2024/02/02 09:31:20;;;;;;;11.93;4.23;;;;;;;6.47;79.58;101706.44;4995691;28;20203;-79
2024/02/02 09:33:49;;;;;;;14.50;4.40;;;;;;;6.49;79.52;101713.41;4999545;28;20207;-79
2024/02/02 09:36:16;;;;;;;10.27;4.20;;;;;;;6.50;79.83;101714.28;4998485;28;20594;-79
2024/02/02 09:38:56;;;;;;;10.80;4.80;;;;;;;6.51;80.26;101713.38;4995369;28;20223;-79
2024/02/02 09:41:54;;;;;;;9.50;3.67;;;;;;;6.54;79.69;101721.22;4998024;28;20266;-79
2024/02/02 09:44:40;;;;;;;18.77;5.13;;;;;;;6.54;79.85;101711.50;4998325;28;20718;-79
2024/02/02 09:47:26;;;;;;;13.67;4.83;;;;;;;6.54;79.33;101715.94;4996591;28;20222;-79
2024/02/02 09:50:07;;;;;;;8.53;4.23;;;;;;;6.56;79.18;101692.94;4998526;28;20200;-79
2024/02/02 09:52:45;;;;;;;15.17;5.53;;;;;;;6.57;78.81;101698.19;4996962;28;20233;-79
2024/02/02 09:55:22;;;;;;;12.73;4.87;;;;;;;6.54;79.25;101708.88;4991824;28;20618;-79
2024/02/02 09:57:55;;;;;;;12.30;5.17;;;;;;;6.56;79.91;101708.81;4993121;28;20217;-79
2024/02/02 10:00:31;;;;;;;10.63;4.67;;;;;;;6.59;79.51;101698.16;4995913;28;20279;-78
2024/02/02 10:03:09;;;;;;;18.80;4.83;;;;;;;6.60;79.14;101694.59;4995516;28;20569;-79
2024/02/02 10:05:49;;;;;;;12.93;5.67;;;;;;;6.61;79.53;101691.91;4999766;28;20228;-78
2024/02/02 10:08:39;;;;;;;13.70;4.90;;;;;;;6.64;79.37;101680.31;4992959;28;20212;-78
2024/02/02 10:11:25;;;;;;;13.10;5.27;;;;;;;6.66;79.32;101686.44;4997910;28;20591;-79
2024/02/02 10:14:10;;;;;;;16.43;6.23;;;;;;;6.66;79.41;101694.38;4997407;28;20213;-78
2024/02/02 10:16:51;;;;;;;11.03;4.57;;;;;;;6.68;79.77;101684.63;4995140;28;20247;-79
2024/02/02 10:19:52;;;;;;;11.23;5.27;;;;;;;6.68;80.16;101684.63;4994059;28;20289;-79
2024/02/02 10:22:35;;;;;;;9.60;5.63;;;;;;;6.71;79.88;101687.16;4997427;28;20209;-79
2024/02/02 10:25:17;;;;;;;10.87;5.07;;;;;;;6.75;79.65;101678.22;4996107;28;20603;-79
2024/02/02 10:28:00;;;;;;;20.33;6.10;;;;;;;6.78;79.55;101685.22;4993176;28;20207;-79
2024/02/02 10:30:37;;;;;;;12.87;5.57;;;;;;;6.73;80.32;101666.81;4996213;28;20214;-78
2024/02/02 10:33:25;;;;;;;14.33;5.40;;;;;;;6.77;79.97;101665.81;4997489;28;20199;-79
2024/02/02 10:36:01;;;;;;;10.57;4.90;;;;;;;6.74;79.87;101665.91;4987778;28;20318;-79
2024/02/02 10:38:47;;;;;;;17.97;5.17;;;;;;;6.79;80.61;101668.41;4994172;28;20267;-79
2024/02/02 10:41:27;;;;;;;12.53;5.83;;;;;;;6.80;80.49;101664.84;4987770;28;20227;-79
2024/02/02 10:44:08;;;;;;;14.00;5.40;;;;;;;6.83;80.97;101665.59;4991171;28;20299;-78
2024/02/02 10:46:43;;;;;;;13.90;5.77;;;;;;;6.89;80.46;101670.72;4982904;28;20231;-78
2024/02/02 10:49:22;;;;;;;14.17;6.07;;;;;;;6.89;80.41;101668.06;4991144;28;20199;-78
2024/02/02 10:52:00;;;;;;;15.70;6.43;;;;;;;6.91;80.96;101663.59;4991852;28;20207;-79
2024/02/02 10:54:41;;;;;;;12.53;5.60;;;;;;;6.92;80.42;101660.03;4994060;28;20217;-79
2024/02/02 10:57:19;;;;;;;12.53;6.23;;;;;;;6.97;81.00;101649.28;4997465;28;20202;-79
2024/02/02 10:59:58;;;;;;;18.90;6.80;;;;;;;7.02;80.98;101647.34;4992014;28;20227;-79
2024/02/02 11:02:33;;;;;;;13.90;6.63;;;;;;;7.05;81.44;101649.03;4997735;28;20203;-79
2024/02/02 11:05:07;;;;;;;10.10;6.17;;;;;;;7.06;81.79;101651.63;4994348;28;20215;-79
2024/02/02 11:07:37;;;;;;;11.23;5.50;;;;;;;7.07;81.39;101647.19;4996517;28;20195;-79
2024/02/02 11:10:07;;;;;;;17.93;5.53;;;;;;;7.11;81.72;101644.41;5000146;28;20200;-79
2024/02/02 11:12:53;;;;;;;13.93;5.63;;;;;;;7.12;82.22;101635.53;4992952;28;20291;-79
2024/02/02 11:15:46;;;;;;;13.43;6.20;;;;;;;7.13;82.01;101620.50;4993179;28;20343;-79
2024/02/02 11:18:33;;;;;;;11.93;5.60;;;;;;;7.16;81.65;101617.75;4996019;28;20199;-79
2024/02/02 11:21:18;;;;;;;13.13;5.83;;;;;;;7.21;80.86;101613.16;4997096;28;20298;-79
2024/02/02 11:23:56;;;;;;;13.93;5.87;;;;;;;7.23;81.54;101611.31;4992516;28;20232;-79
2024/02/02 11:26:26;;;;;;;15.83;6.90;;;;;;;7.24;83.02;101623.66;5001703;28;20322;-79
2024/02/02 11:29:05;;;;;;;16.57;5.37;;;;;;;7.24;82.68;101599.81;4991196;28;20203;-79
2024/02/02 11:31:39;;;;;;;12.33;5.93;;;;;;;7.23;81.83;101588.34;4992316;28;20206;-79
2024/02/02 11:34:16;;;;;;;18.60;6.57;;;;;;;7.26;82.22;101590.03;4994352;28;20214;-79
2024/02/02 11:36:58;;;;;;;12.27;5.70;;;;;;;7.26;82.67;101582.06;4991770;28;20233;-78